Terminal Aerodrome Forecast
Issued by NWS Corpus Christi, TX

Home | Current Version | Previous Version | Text Only | Print | Product List | Glossary On
Versions: 1 2 3 4 5 6 7 8 9 10 11 12 13 14 15
000
FTUS44 KCRP 300523
TAFVCT
TAF
KVCT 300523Z 3006/3106 13011KT P6SM SCT025 BKN150
     FM300700 11004KT 6SM BR SCT015 BKN150
      TEMPO 3007/3011 4SM BR BKN015
     FM301400 14008KT P6SM SCT025 BKN250
     FM301800 14012KT P6SM SCT040 BKN250
     FM310100 14006KT P6SM FEW015 BKN100=

USA.gov is the U.S. government's official web portal to all federal, state and local government web resources and services.